Time;durP1;ratioP1;P1;durP2;ratioP2;P2;SDS_P1;SDS_P2;PMS_P1;PMS_P2;Temp;Humidity;BMP_temperature;BMP_pressure;BME280_temperature;BME280_humidity;BME280_pressure;Samples;Min_cycle;Max_cycle;Signal;HPM_P1;HPM_P2
2022/05/22 00:02:44;;;;;;;;;;;;;;;-145.66;100.00;59599.19;10421071;28;19928;-67
2022/05/22 00:07:46;;;;;;;;;;;;;;;-145.66;100.00;59599.19;10420581;28;19928;-67
2022/05/22 00:12:49;;;;;;;;;;;;;;;-145.66;100.00;59599.19;10419003;28;19921;-67
2022/05/22 00:17:51;;;;;;;;;;;;;;;-145.66;100.00;59599.19;10420715;28;19927;-67
2022/05/22 00:22:53;;;;;;;;;;;;;;;-145.66;100.00;59599.19;10420596;28;19921;-67
2022/05/22 00:27:55;;;;;;;;;;;;;;;-145.66;100.00;59599.19;10419245;28;19921;-67
2022/05/22 00:32:57;;;;;;;;;;;;;;;-145.66;100.00;59599.19;10420152;28;19921;-67
2022/05/22 00:38:00;;;;;;;;;;;;;;;-145.66;100.00;59599.19;10419805;28;19931;-67
2022/05/22 00:43:02;;;;;;;;;;;;;;;-145.66;100.00;59599.19;10419715;28;19936;-67
2022/05/22 00:48:04;;;;;;;;;;;;;;;-145.66;100.00;59599.19;10419619;28;19969;-67
2022/05/22 00:53:06;;;;;;;;;;;;;;;-145.66;100.00;59599.19;10419365;28;19921;-67
2022/05/22 00:58:13;;;;;;;;;;;;;;;-145.66;100.00;59599.19;10419087;28;19925;-67
2022/05/22 01:03:29;;;;;;;;;;;;;;;-145.66;100.00;59599.19;10417201;28;20383;-67
2022/05/22 01:08:31;;;;;;;;;;;;;;;-145.66;100.00;59599.19;10418153;28;20284;-67
2022/05/22 01:13:35;;;;;;;;;;;;;;;-145.66;100.00;59599.19;10416049;28;20390;-67
2022/05/22 01:18:41;;;;;;;;;;;;;;;-145.66;100.00;59599.19;10418115;28;19927;-67
2022/05/22 01:23:43;;;;;;;;;;;;;;;-145.66;100.00;59599.19;10416224;28;19928;-67
2022/05/22 01:28:45;;;;;;;;;;;;;;;-145.66;100.00;59599.19;10417456;28;19921;-67
2022/05/22 01:33:47;;;;;;;;;;;;;;;-145.66;100.00;59599.19;10416980;28;19921;-67
2022/05/22 01:38:50;;;;;;;;;;;;;;;-145.66;100.00;59599.19;10417550;28;19929;-67
2022/05/22 01:43:52;;;;;;;;;;;;;;;-145.66;100.00;59599.19;10417293;28;19932;-67
2022/05/22 01:48:55;;;;;;;;;;;;;;;-145.66;100.00;59599.19;10417104;28;19928;-67
2022/05/22 01:54:01;;;;;;;;;;;;;;;-145.66;100.00;59599.19;10416952;28;19921;-67
2022/05/22 01:59:04;;;;;;;;;;;;;;;-145.66;100.00;59599.19;10415065;28;20007;-67
2022/05/22 02:04:06;;;;;;;;;;;;;;;-145.66;100.00;59599.19;10416918;28;19921;-67
2022/05/22 02:09:08;;;;;;;;;;;;;;;-145.66;100.00;59599.19;10416934;28;19932;-67
2022/05/22 02:14:11;;;;;;;;;;;;;;;-145.66;100.00;59599.19;10415847;28;19921;-67
2022/05/22 02:19:13;;;;;;;;;;;;;;;-145.66;100.00;59599.19;10416334;28;19928;-67
2022/05/22 02:24:16;;;;;;;;;;;;;;;-145.66;100.00;59599.19;10415597;28;20360;-67
2022/05/22 02:29:18;;;;;;;;;;;;;;;-145.66;100.00;59599.19;10416032;28;19928;-67
2022/05/22 02:34:20;;;;;;;;;;;;;;;-145.66;100.00;59599.19;10415930;28;19925;-67
2022/05/22 02:39:22;;;;;;;;;;;;;;;-145.66;100.00;59599.19;10415910;28;19928;-67
2022/05/22 02:44:25;;;;;;;;;;;;;;;-145.66;100.00;59599.19;10415162;28;19921;-67
2022/05/22 02:49:27;;;;;;;;;;;;;;;-145.66;100.00;59599.19;10415121;28;20361;-67
2022/05/22 02:54:29;;;;;;;;;;;;;;;-145.66;100.00;59599.19;10415584;28;19921;-67
2022/05/22 02:59:32;;;;;;;;;;;;;;;-145.66;100.00;59599.19;10415534;28;19921;-67
2022/05/22 03:04:34;;;;;;;;;;;;;;;-145.66;100.00;59599.19;10415408;28;19921;-67
2022/05/22 03:09:37;;;;;;;;;;;;;;;-145.66;100.00;59599.19;10414676;28;19944;-67
2022/05/22 03:14:43;;;;;;;;;;;;;;;-145.66;100.00;59599.19;10414548;28;19932;-67
2022/05/22 03:19:45;;;;;;;;;;;;;;;-145.66;100.00;59599.19;10413898;28;20360;-67
2022/05/22 03:24:48;;;;;;;;;;;;;;;-145.66;100.00;59599.19;10414440;28;20036;-67
2022/05/22 03:29:50;;;;;;;;;;;;;;;-145.66;100.00;59599.19;10414949;28;19924;-67
2022/05/22 03:34:52;;;;;;;;;;;;;;;-145.66;100.00;59599.19;10413629;28;19975;-67
2022/05/22 03:39:55;;;;;;;;;;;;;;;-145.66;100.00;59599.19;10418254;28;19921;-67
2022/05/22 03:44:57;;;;;;;;;;;;;;;-145.66;100.00;59599.19;10422136;28;19925;-67
2022/05/22 03:50:04;;;;;;;;;;;;;;;-145.66;100.00;59599.19;10421306;28;20276;-67
2022/05/22 03:55:07;;;;;;;;;;;;;;;-145.66;100.00;59599.19;10421670;28;19928;-67
2022/05/22 04:00:10;;;;;;;;;;;;;;;-145.66;100.00;59599.19;10420299;28;19925;-67
2022/05/22 04:05:12;;;;;;;;;;;;;;;-145.66;100.00;59599.19;10420138;28;19921;-67
2022/05/22 04:10:15;;;;;;;;;;;;;;;-145.66;100.00;59599.19;10419928;28;19928;-67
2022/05/22 04:15:18;;;;;;;;;;;;;;;-145.66;100.00;59599.19;10420088;28;20280;-67
2022/05/22 04:20:20;;;;;;;;;;;;;;;-145.66;100.00;59599.19;10418882;28;20438;-67
2022/05/22 04:25:23;;;;;;;;;;;;;;;-145.66;100.00;59599.19;10419885;28;19935;-67
2022/05/22 04:30:25;;;;;;;;;;;;;;;-145.66;100.00;59599.19;10420353;28;19928;-67
2022/05/22 04:35:28;;;;;;;;;;;;;;;-145.66;100.00;59599.19;10420092;28;19920;-67
2022/05/22 04:40:31;;;;;;;;;;;;;;;-145.66;100.00;59599.19;10419337;28;20396;-67
2022/05/22 04:45:33;;;;;;;;;;;;;;;-145.66;100.00;59599.19;10419281;28;20375;-67
2022/05/22 04:50:35;;;;;;;;;;;;;;;-145.66;100.00;59599.19;10417817;28;20374;-67
2022/05/22 04:55:37;;;;;;;;;;;;;;;-145.66;100.00;59599.19;10419240;28;19936;-67
2022/05/22 05:00:40;;;;;;;;;;;;;;;-145.66;100.00;59599.19;10418492;28;19928;-67
2022/05/22 05:05:42;;;;;;;;;;;;;;;-145.66;100.00;59599.19;10417134;28;19921;-67
2022/05/22 05:10:44;;;;;;;;;;;;;;;-145.66;100.00;59599.19;10417579;28;19928;-67
2022/05/22 05:15:56;;;;;;;;;;;;;;;-145.66;100.00;59599.19;10416573;28;19921;-67
2022/05/22 05:20:59;;;;;;;;;;;;;;;-145.66;100.00;59599.19;10418364;28;19929;-67
2022/05/22 05:26:02;;;;;;;;;;;;;;;-145.66;100.00;59599.19;10418146;28;19928;-68
2022/05/22 05:31:04;;;;;;;;;;;;;;;-145.66;100.00;59599.19;10417300;28;20356;-67
2022/05/22 05:36:10;;;;;;;;;;;;;;;-145.66;100.00;59599.19;10417733;28;19921;-67
2022/05/22 05:41:13;;;;;;;;;;;;;;;-145.66;100.00;59599.19;10416447;28;19951;-67
2022/05/22 05:46:15;;;;;;;;;;;;;;;-145.66;100.00;59599.19;10417420;28;19921;-67
2022/05/22 05:51:17;;;;;;;;;;;;;;;-145.66;100.00;59599.19;10417272;28;19928;-67
2022/05/22 05:57:18;;;;;;;;;;;;;;;-145.66;100.00;59599.19;10416723;28;19921;-67
2022/05/22 06:02:20;;;;;;;;;;;;;;;-145.66;100.00;59599.19;10415985;28;20295;-68
2022/05/22 06:07:22;;;;;;;;;;;;;;;-145.66;100.00;59599.19;10416756;28;19956;-68
2022/05/22 06:12:24;;;;;;;;;;;;;;;-145.66;100.00;59599.19;10416191;28;19928;-68
2022/05/22 06:17:30;;;;;;;;;;;;;;;-145.66;100.00;59599.19;10416341;28;19921;-68
2022/05/22 06:22:33;;;;;;;;;;;;;;;-145.66;100.00;59599.19;10416256;28;19921;-67
2022/05/22 06:27:35;;;;;;;;;;;;;;;-145.66;100.00;59599.19;10416190;28;19959;-68
2022/05/22 06:32:39;;;;;;;;;;;;;;;-145.66;100.00;59599.19;10415461;28;19921;-68
2022/05/22 06:37:41;;;;;;;;;;;;;;;-145.66;100.00;59599.19;10414779;28;19921;-68
2022/05/22 06:42:44;;;;;;;;;;;;;;;-145.66;100.00;59599.19;10415850;28;19920;-67
2022/05/22 06:47:47;;;;;;;;;;;;;;;-145.66;100.00;59599.19;10414631;28;19968;-68
2022/05/22 06:52:49;;;;;;;;;;;;;;;-145.66;100.00;59599.19;10414529;28;19921;-68
2022/05/22 06:57:51;;;;;;;;;;;;;;;-145.66;100.00;59599.19;10414377;28;19925;-68
2022/05/22 07:02:54;;;;;;;;;;;;;;;-145.66;100.00;59599.19;10397309;28;19928;-67
2022/05/22 07:07:56;;;;;;;;;;;;;;;-145.66;100.00;59599.19;10415387;28;19929;-68
2022/05/22 07:13:02;;;;;;;;;;;;;;;-145.66;100.00;59599.19;10415357;28;19983;-68
2022/05/22 07:18:04;;;;;;;;;;;;;;;-145.66;100.00;59599.19;10422441;28;19921;-68
2022/05/22 07:23:06;;;;;;;;;;;;;;;-145.66;100.00;59599.19;10422345;28;19928;-68
2022/05/22 07:28:08;;;;;;;;;;;;;;;-145.66;100.00;59599.19;10422384;28;20368;-68
2022/05/22 07:33:11;;;;;;;;;;;;;;;-145.66;100.00;59599.19;10421450;28;19925;-68
2022/05/22 07:38:13;;;;;;;;;;;;;;;-145.66;100.00;59599.19;10422381;28;19928;-68
2022/05/22 07:43:16;;;;;;;;;;;;;;;-145.66;100.00;59599.19;10422166;28;19921;-68
2022/05/22 07:48:18;;;;;;;;;;;;;;;-145.66;100.00;59599.19;10422004;28;19921;-68
2022/05/22 07:53:20;;;;;;;;;;;;;;;-145.66;100.00;59599.19;10421210;28;19924;-68
2022/05/22 07:58:23;;;;;;;;;;;;;;;-145.66;100.00;59599.19;10421608;28;19921;-68
2022/05/22 08:03:26;;;;;;;;;;;;;;;-145.66;100.00;59599.19;10420226;28;19928;-68
2022/05/22 08:08:28;;;;;;;;;;;;;;;-145.66;100.00;59599.19;10421112;28;19921;-68
2022/05/22 08:13:39;;;;;;;;;;;;;;;-145.66;100.00;59599.19;10420312;28;20387;-68
2022/05/22 08:18:41;;;;;;;;;;;;;;;-145.66;100.00;59599.19;10420051;28;20269;-68
2022/05/22 08:23:44;;;;;;;;;;;;;;;-145.66;100.00;59599.19;10420465;28;19921;-67
2022/05/22 08:28:46;;;;;;;;;;;;;;;-145.66;100.00;59599.19;10425726;23;20287;-67
2022/05/22 08:33:48;;;;;;;;;;;;;;;-145.66;100.00;59599.19;10419743;28;19928;-68
2022/05/22 08:38:50;;;;;;;;;;;;;;;-145.66;100.00;59599.19;10419469;28;20253;-68
2022/05/22 08:44:16;;;;;;;;;;;;;;;-145.66;100.00;59599.19;10419288;28;20298;-67
2022/05/22 08:49:24;;;;;;;;;;;;;;;-145.66;100.00;59599.19;10413615;28;19921;-68
2022/05/22 08:54:34;;;;;;;;;;;;;;;-145.66;100.00;59599.19;10419437;28;19921;-68
2022/05/22 08:59:39;;;;;;;;;;;;;;;-145.66;100.00;59599.19;10419333;28;19924;-67
2022/05/22 09:04:45;;;;;;;;;;;;;;;-145.66;100.00;59599.19;10417283;28;19921;-68
2022/05/22 09:09:56;;;;;;;;;;;;;;;-145.66;100.00;59599.19;10418872;28;19928;-68
2022/05/22 09:15:20;;;;;;;;;;;;;;;-145.66;100.00;59599.19;10417500;28;19968;-66
2022/05/22 09:20:25;;;;;;;;;;;;;;;-145.66;100.00;59599.19;10418483;28;19931;-66
2022/05/22 09:25:49;;;;;;;;;;;;;;;-145.66;100.00;59599.19;10417611;28;19995;-65
2022/05/22 09:30:52;;;;;;;;;;;;;;;-145.66;100.00;59599.19;10417576;28;19921;-66
2022/05/22 09:35:56;;;;;;;;;;;;;;;-145.66;100.00;59599.19;10417221;28;19921;-66
2022/05/22 09:41:02;;;;;;;;;;;;;;;-145.66;100.00;59599.19;10417984;28;19921;-66
2022/05/22 09:46:23;;;;;;;;;;;;;;;-145.66;100.00;59599.19;10415706;28;19921;-66
2022/05/22 09:51:47;;;;;;;;;;;;;;;-145.66;100.00;59599.19;10417286;28;19921;-65
2022/05/22 09:57:07;;;;;;;;;;;;;;;-145.66;100.00;59599.19;10416419;28;20364;-66
2022/05/22 10:02:16;;;;;;;;;;;;;;;-145.66;100.00;59599.19;10416965;28;19921;-66
2022/05/22 10:07:37;;;;;;;;;;;;;;;-145.66;100.00;59599.19;10415573;28;19921;-66
2022/05/22 10:12:52;;;;;;;;;;;;;;;-145.66;100.00;59599.19;10416021;28;20357;-66
2022/05/22 10:18:09;;;;;;;;;;;;;;;-145.66;100.00;59599.19;10415355;28;19924;-66
2022/05/22 10:23:24;;;;;;;;;;;;;;;-145.66;100.00;59599.19;10415794;28;20360;-66
2022/05/22 10:28:37;;;;;;;;;;;;;;;-145.66;100.00;59599.19;10415456;28;20322;-66
2022/05/22 10:33:55;;;;;;;;;;;;;;;-145.66;100.00;59599.19;10414998;28;19921;-66
2022/05/22 10:39:02;;;;;;;;;;;;;;;-145.66;100.00;59599.19;10414165;28;20280;-66
2022/05/22 10:44:06;;;;;;;;;;;;;;;-145.66;100.00;59599.19;10414005;28;20364;-66
2022/05/22 10:49:08;;;;;;;;;;;;;;;-145.66;100.00;59599.19;10418589;28;19925;-66
2022/05/22 10:54:21;;;;;;;;;;;;;;;-145.66;100.00;59599.19;10424188;28;19928;-66
2022/05/22 10:59:23;;;;;;;;;;;;;;;-145.66;100.00;59599.19;10422706;28;19925;-66
2022/05/22 11:04:33;;;;;;;;;;;;;;;-145.66;100.00;59599.19;10421922;28;19920;-66
2022/05/22 11:09:44;;;;;;;;;;;;;;;-145.66;100.00;59599.19;10423628;28;19928;-66
2022/05/22 11:14:47;;;;;;;;;;;;;;;-145.66;100.00;59599.19;10423280;28;19928;-66
2022/05/22 11:19:50;;;;;;;;;;;;;;;-145.66;100.00;59599.19;10423138;28;20280;-66
2022/05/22 11:25:08;;;;;;;;;;;;;;;-145.66;100.00;59599.19;10421872;28;19925;-66
2022/05/22 11:30:16;;;;;;;;;;;;;;;-145.66;100.00;59599.19;10421971;28;19956;-66
2022/05/22 11:35:50;;;;;;;;;;;;;;;-145.66;100.00;59599.19;10422515;28;19921;-66
2022/05/22 11:40:55;;;;;;;;;;;;;;;-145.66;100.00;59599.19;10399183;28;20387;-66
2022/05/22 11:46:01;;;;;;;;;;;;;;;-145.66;100.00;59599.19;10421558;28;20276;-66
2022/05/22 11:51:22;;;;;;;;;;;;;;;-145.66;100.00;59599.19;10420183;28;19920;-66
2022/05/22 11:56:43;;;;;;;;;;;;;;;-145.66;100.00;59599.19;10421094;28;19921;-66
2022/05/22 12:01:48;;;;;;;;;;;;;;;-145.66;100.00;59599.19;10421022;28;19928;-66
2022/05/22 12:06:58;;;;;;;;;;;;;;;-145.66;100.00;59599.19;10420186;28;19925;-66
2022/05/22 12:12:19;;;;;;;;;;;;;;;-145.66;100.00;59599.19;10420057;28;19921;-66
2022/05/22 12:17:23;;;;;;;;;;;;;;;-145.66;100.00;59599.19;10420926;28;19921;-66
2022/05/22 12:23:07;;;;;;;;;;;;;;;-145.66;100.00;59599.19;10419521;28;19925;-66
2022/05/22 12:27:48;;;;;;;;;;;;;;;-145.66;100.00;59599.19;10418490;28;19921;-66
2022/05/22 12:32:57;;;;;;;;;;;;;;;-145.66;100.00;59599.19;10419078;28;19921;-66
2022/05/22 12:38:03;;;;;;;;;;;;;;;-145.66;100.00;59599.19;10418173;28;19921;-66
2022/05/22 12:43:06;;;;;;;;;;;;;;;-145.66;100.00;59599.19;10419168;28;19939;-66
2022/05/22 12:48:10;;;;;;;;;;;;;;;-145.66;100.00;59599.19;10419593;28;19925;-66
2022/05/22 12:53:30;;;;;;;;;;;;;;;-145.66;100.00;59599.19;10419419;28;19928;-66
2022/05/22 12:58:42;;;;;;;;;;;;;;;-145.66;100.00;59599.19;10419181;28;19936;-65
2022/05/22 13:03:48;;;;;;;;;;;;;;;-145.66;100.00;59599.19;10418374;28;19921;-65
2022/05/22 13:09:03;;;;;;;;;;;;;;;-145.66;100.00;59599.19;10418793;28;20335;-65
2022/05/22 13:14:05;;;;;;;;;;;;;;;-145.66;100.00;59599.19;10417784;28;19929;-65
2022/05/22 13:19:15;;;;;;;;;;;;;;;-145.66;100.00;59599.19;10416655;28;20368;-65
2022/05/22 13:24:17;;;;;;;;;;;;;;;-145.66;100.00;59599.19;10418333;28;19927;-65
2022/05/22 13:29:20;;;;;;;;;;;;;;;-145.66;100.00;59599.19;10417363;28;19921;-65
2022/05/22 13:34:26;;;;;;;;;;;;;;;-145.66;100.00;59599.19;10416158;28;20364;-65
2022/05/22 13:39:47;;;;;;;;;;;;;;;-145.66;100.00;59599.19;10417122;28;20283;-65
2022/05/22 13:44:52;;;;;;;;;;;;;;;-145.66;100.00;59599.19;10416852;28;19928;-65
2022/05/22 13:55:38;;;;;;;;;;;;;;;-145.66;100.00;59599.19;10414357;28;19927;-66
2022/05/22 14:00:40;;;;;;;;;;;;;;;-145.66;100.00;59599.19;10414012;28;20292;-65
2022/05/22 14:05:43;;;;;;;;;;;;;;;-145.66;100.00;59599.19;10414442;28;19925;-65
2022/05/22 14:10:46;;;;;;;;;;;;;;;-145.66;100.00;59599.19;10415568;28;19921;-65
2022/05/22 14:15:55;;;;;;;;;;;;;;;-145.66;100.00;59599.19;10415881;28;19921;-65
2022/05/22 14:20:58;;;;;;;;;;;;;;;-145.66;100.00;59599.19;10415979;28;19921;-65
2022/05/22 14:26:01;;;;;;;;;;;;;;;-145.66;100.00;59599.19;10415870;28;19921;-65
2022/05/22 14:31:11;;;;;;;;;;;;;;;-145.66;100.00;59599.19;10413803;28;19996;-65
2022/05/22 14:36:14;;;;;;;;;;;;;;;-145.66;100.00;59599.19;10414839;28;19927;-65
2022/05/22 14:41:20;;;;;;;;;;;;;;;-145.66;100.00;59599.19;10414759;28;19927;-65
2022/05/22 14:46:41;;;;;;;;;;;;;;;-145.66;100.00;59599.19;10414007;28;20283;-68
2022/05/22 14:51:46;;;;;;;;;;;;;;;-145.66;100.00;59599.19;10414588;28;19970;-69
2022/05/22 14:56:52;;;;;;;;;;;;;;;-145.66;100.00;59599.19;10414391;28;19921;-69
2022/05/22 15:01:55;;;;;;;;;;;;;;;-145.66;100.00;59599.19;10415432;28;19921;-69
2022/05/22 15:06:58;;;;;;;;;;;;;;;-145.66;100.00;59599.19;10413700;28;19987;-69
2022/05/22 15:12:08;;;;;;;;;;;;;;;-145.66;100.00;59599.19;10413219;28;19921;-68
2022/05/22 15:17:18;;;;;;;;;;;;;;;-145.66;100.00;59599.19;10414267;28;20399;-65
2022/05/22 15:28:19;;;;;;;;;;;;;;;-145.66;100.00;59599.19;10414084;28;19928;-69
2022/05/22 15:33:21;;;;;;;;;;;;;;;-145.66;100.00;59599.19;10401089;28;19920;-70
2022/05/22 15:38:25;;;;;;;;;;;;;;;-145.66;100.00;59599.19;10421581;28;19928;-70
2022/05/22 15:43:32;;;;;;;;;;;;;;;-145.66;100.00;59599.19;10421325;28;19927;-70
2022/05/22 15:54:05;;;;;;;;;;;;;;;-145.66;100.00;59599.19;10420670;28;19928;-70
2022/05/22 15:59:07;;;;;;;;;;;;;;;-145.66;100.00;59599.19;10419832;28;20380;-70
2022/05/22 16:04:09;;;;;;;;;;;;;;;-145.66;100.00;59599.19;10420402;28;20288;-70
2022/05/22 16:09:12;;;;;;;;;;;;;;;-145.66;100.00;59599.19;10421188;28;19927;-70
2022/05/22 16:14:14;;;;;;;;;;;;;;;-145.66;100.00;59599.19;10420948;28;19921;-70
2022/05/22 16:19:17;;;;;;;;;;;;;;;-145.66;100.00;59599.19;10420738;28;19992;-70
2022/05/22 16:24:19;;;;;;;;;;;;;;;-145.66;100.00;59599.19;10419881;28;20364;-70
2022/05/22 16:29:22;;;;;;;;;;;;;;;-145.66;100.00;59599.19;10419801;28;19921;-70
2022/05/22 16:34:24;;;;;;;;;;;;;;;-145.66;100.00;59599.19;10419783;28;19925;-70
2022/05/22 16:39:29;;;;;;;;;;;;;;;-145.66;100.00;59599.19;10418516;28;19928;-70
2022/05/22 16:44:31;;;;;;;;;;;;;;;-145.66;100.00;59599.19;10420069;28;19921;-70
2022/05/22 16:54:55;;;;;;;;;;;;;;;-145.66;100.00;59599.19;10418992;28;20379;-70
2022/05/22 16:59:57;;;;;;;;;;;;;;;-145.66;100.00;59599.19;10416699;28;19928;-70
2022/05/22 17:05:00;;;;;;;;;;;;;;;-145.66;100.00;59599.19;10418928;28;19935;-70
2022/05/22 17:10:02;;;;;;;;;;;;;;;-145.66;100.00;59599.19;10418335;28;19927;-70
2022/05/22 17:15:04;;;;;;;;;;;;;;;-145.66;100.00;59599.19;10417032;28;19925;-70
2022/05/22 17:20:07;;;;;;;;;;;;;;;-145.66;100.00;59599.19;10418249;28;19928;-70
2022/05/22 17:25:12;;;;;;;;;;;;;;;-145.66;100.00;59599.19;10417235;28;19925;-70
2022/05/22 17:30:16;;;;;;;;;;;;;;;-145.66;100.00;59599.19;10417549;28;19928;-70
2022/05/22 17:35:19;;;;;;;;;;;;;;;-145.66;100.00;59599.19;10416911;28;19928;-70
2022/05/22 17:40:21;;;;;;;;;;;;;;;-145.66;100.00;59599.19;10416570;28;19924;-70
2022/05/22 17:45:23;;;;;;;;;;;;;;;-145.66;100.00;59599.19;10416358;28;20352;-70
2022/05/22 17:50:26;;;;;;;;;;;;;;;-145.66;100.00;59599.19;10416353;28;19921;-70
2022/05/22 17:55:29;;;;;;;;;;;;;;;-145.66;100.00;59599.19;10417137;28;19921;-70
2022/05/22 18:00:32;;;;;;;;;;;;;;;-145.66;100.00;59599.19;10416759;28;19928;-70
2022/05/22 18:05:34;;;;;;;;;;;;;;;-145.66;100.00;59599.19;10415516;28;19932;-70
2022/05/22 18:16:03;;;;;;;;;;;;;;;-145.66;100.00;59599.19;10415812;28;20382;-70
2022/05/22 18:21:07;;;;;;;;;;;;;;;-145.66;100.00;59599.19;10416050;28;20003;-70
2022/05/22 18:26:10;;;;;;;;;;;;;;;-145.66;100.00;59599.19;10413309;28;20324;-70
2022/05/22 18:31:13;;;;;;;;;;;;;;;-145.66;100.00;59599.19;10411422;28;19943;-70
2022/05/22 18:36:23;;;;;;;;;;;;;;;-145.66;100.00;59599.19;10414265;28;19920;-69
2022/05/22 18:41:25;;;;;;;;;;;;;;;-145.66;100.00;59599.19;10416192;28;19921;-69
2022/05/22 18:46:27;;;;;;;;;;;;;;;-145.66;100.00;59599.19;10404461;28;19944;-69
2022/05/22 18:51:29;;;;;;;;;;;;;;;-145.66;100.00;59599.19;10414648;28;19925;-69
2022/05/22 18:56:33;;;;;;;;;;;;;;;-145.66;100.00;59599.19;10415687;28;19921;-69
2022/05/22 19:01:36;;;;;;;;;;;;;;;-145.66;100.00;59599.19;10413715;28;19928;-69
2022/05/22 19:06:38;;;;;;;;;;;;;;;-145.66;100.00;59599.19;10414753;28;19968;-69
2022/05/22 19:11:41;;;;;;;;;;;;;;;-145.66;100.00;59599.19;10420570;28;19932;-69
2022/05/22 19:16:43;;;;;;;;;;;;;;;-145.66;100.00;59599.19;10421063;28;19921;-69
2022/05/22 19:21:46;;;;;;;;;;;;;;;-145.66;100.00;59599.19;10421971;28;19928;-69
2022/05/22 19:26:49;;;;;;;;;;;;;;;-145.66;100.00;59599.19;10421770;28;19921;-69
2022/05/22 19:31:54;;;;;;;;;;;;;;;-145.66;100.00;59599.19;10421036;28;20291;-69
2022/05/22 19:36:57;;;;;;;;;;;;;;;-145.66;100.00;59599.19;10420299;28;20372;-69
2022/05/22 19:47:22;;;;;;;;;;;;;;;-145.66;100.00;59599.19;10420195;28;19928;-70
2022/05/22 19:52:25;;;;;;;;;;;;;;;-145.66;100.00;59599.19;10421586;28;19932;-69
2022/05/22 20:02:49;;;;;;;;;;;;;;;-145.66;100.00;59599.19;10419943;28;19928;-70
2022/05/22 20:07:52;;;;;;;;;;;;;;;-145.66;100.00;59599.19;10418666;28;20369;-69
2022/05/22 20:12:54;;;;;;;;;;;;;;;-145.66;100.00;59599.19;10419073;28;19932;-69
2022/05/22 20:17:56;;;;;;;;;;;;;;;-145.66;100.00;59599.19;10420669;28;19921;-69
2022/05/22 20:23:00;;;;;;;;;;;;;;;-145.66;100.00;59599.19;10418496;28;19928;-69
2022/05/22 20:28:04;;;;;;;;;;;;;;;-145.66;100.00;59599.19;10418571;28;19927;-69
2022/05/22 20:33:08;;;;;;;;;;;;;;;-145.66;100.00;59599.19;10420524;28;19921;-69
2022/05/22 20:38:10;;;;;;;;;;;;;;;-145.66;100.00;59599.19;10419675;28;20390;-69
2022/05/22 20:43:12;;;;;;;;;;;;;;;-145.66;100.00;59599.19;10384447;22;20403;-69
2022/05/22 20:48:35;;;;;;;;;;;;;;;-145.66;100.00;59599.19;10337192;28;19948;-69
2022/05/22 20:53:37;;;;;;;;;;;;;;;-145.66;100.00;59599.19;10337488;28;20300;-69
2022/05/22 20:58:39;;;;;;;;;;;;;;;-145.66;100.00;59599.19;10352490;28;20361;-70
2022/05/22 21:03:42;;;;;;;;;;;;;;;-145.66;100.00;59599.19;10337325;28;19921;-69
2022/05/22 21:08:44;;;;;;;;;;;;;;;-145.66;100.00;59599.19;10337576;28;19921;-70
2022/05/22 21:13:46;;;;;;;;;;;;;;;-145.66;100.00;59599.19;10336740;28;20436;-70
2022/05/22 21:18:49;;;;;;;;;;;;;;;-145.66;100.00;59599.19;10336468;28;20292;-70
2022/05/22 21:29:12;;;;;;;;;;;;;;;-145.66;100.00;59599.19;10335938;28;19921;-69
2022/05/22 21:34:14;;;;;;;;;;;;;;;-145.66;100.00;59599.19;10335102;28;19925;-69
2022/05/22 21:39:17;;;;;;;;;;;;;;;-145.66;100.00;59599.19;10336481;28;19929;-70
2022/05/22 21:44:19;;;;;;;;;;;;;;;-145.66;100.00;59599.19;10335156;28;20270;-69
2022/05/22 21:49:21;;;;;;;;;;;;;;;-145.66;100.00;59599.19;10335555;28;20387;-70
2022/05/22 21:54:23;;;;;;;;;;;;;;;-145.66;100.00;59599.19;10335068;28;20400;-69
2022/05/22 21:59:26;;;;;;;;;;;;;;;-145.66;100.00;59599.19;10334871;28;20296;-69
2022/05/22 22:04:29;;;;;;;;;;;;;;;-145.66;100.00;59599.19;10350468;28;19922;-69
2022/05/22 22:09:31;;;;;;;;;;;;;;;-145.66;100.00;59599.19;10335258;28;19928;-69
2022/05/22 22:14:34;;;;;;;;;;;;;;;-145.66;100.00;59599.19;10334452;28;19944;-69
2022/05/22 22:19:36;;;;;;;;;;;;;;;-145.66;100.00;59599.19;10334975;28;19921;-69
2022/05/22 22:24:38;;;;;;;;;;;;;;;-145.66;100.00;59599.19;10334772;28;19922;-69
2022/05/22 22:29:40;;;;;;;;;;;;;;;-145.66;100.00;59599.19;10349996;28;19928;-69
2022/05/22 22:34:43;;;;;;;;;;;;;;;-145.66;100.00;59599.19;10334142;28;19929;-69
2022/05/22 22:39:45;;;;;;;;;;;;;;;-145.66;100.00;59599.19;10334071;28;19948;-69
2022/05/22 22:44:47;;;;;;;;;;;;;;;-145.66;100.00;59599.19;10340897;28;19929;-69
2022/05/22 22:49:49;;;;;;;;;;;;;;;-145.66;100.00;59599.19;10348043;28;19922;-69
2022/05/22 23:00:14;;;;;;;;;;;;;;;-145.66;100.00;59599.19;10347620;28;19922;-69
2022/05/22 23:05:16;;;;;;;;;;;;;;;-145.66;100.00;59599.19;10346945;28;19922;-69
2022/05/22 23:10:19;;;;;;;;;;;;;;;-145.66;100.00;59599.19;10362490;28;19935;-69
2022/05/22 23:15:21;;;;;;;;;;;;;;;-145.66;100.00;59599.19;10346920;28;19928;-69
2022/05/22 23:20:23;;;;;;;;;;;;;;;-145.66;100.00;59599.19;10346526;28;19922;-70
2022/05/22 23:25:25;;;;;;;;;;;;;;;-145.66;100.00;59599.19;10347313;28;19925;-69
2022/05/22 23:30:28;;;;;;;;;;;;;;;-145.66;100.00;59599.19;10346872;28;19929;-69
2022/05/22 23:35:30;;;;;;;;;;;;;;;-145.66;100.00;59599.19;10346404;28;20357;-69
2022/05/22 23:40:33;;;;;;;;;;;;;;;-145.66;100.00;59599.19;10346033;28;20293;-69
2022/05/22 23:45:35;;;;;;;;;;;;;;;-145.66;100.00;59599.19;10346235;28;20288;-69
2022/05/22 23:50:38;;;;;;;;;;;;;;;-145.66;100.00;59599.19;10345867;28;20288;-69
2022/05/22 23:55:40;;;;;;;;;;;;;;;-145.66;100.00;59599.19;10357837;28;19925;-69
